sensor_id;sensor_type;location;lat;lon;timestamp;P1;durP1;ratioP1;P2;durP2;ratioP2
70535;SDS011;58089;48.752;11.338;2022-07-10T00:01:10;6.33;;;3.30;;
70535;SDS011;58089;48.752;11.338;2022-07-10T00:03:35;6.60;;;3.47;;
70535;SDS011;58089;48.752;11.338;2022-07-10T00:06:00;6.83;;;3.67;;
70535;SDS011;58089;48.752;11.338;2022-07-10T00:08:26;5.77;;;3.30;;
70535;SDS011;58089;48.752;11.338;2022-07-10T00:10:51;6.00;;;3.30;;
70535;SDS011;58089;48.752;11.338;2022-07-10T00:13:16;5.47;;;3.40;;
70535;SDS011;58089;48.752;11.338;2022-07-10T00:15:41;5.13;;;2.80;;
70535;SDS011;58089;48.752;11.338;2022-07-10T00:18:06;6.13;;;3.50;;
70535;SDS011;58089;48.752;11.338;2022-07-10T00:20:32;6.13;;;3.60;;
70535;SDS011;58089;48.752;11.338;2022-07-10T00:22:57;7.73;;;3.50;;
70535;SDS011;58089;48.752;11.338;2022-07-10T00:25:22;6.73;;;3.60;;
70535;SDS011;58089;48.752;11.338;2022-07-10T00:27:47;5.70;;;3.50;;
70535;SDS011;58089;48.752;11.338;2022-07-10T00:30:12;6.00;;;3.70;;
70535;SDS011;58089;48.752;11.338;2022-07-10T00:32:38;8.18;;;3.28;;
70535;SDS011;58089;48.752;11.338;2022-07-10T00:35:04;5.97;;;3.73;;
70535;SDS011;58089;48.752;11.338;2022-07-10T00:37:30;6.73;;;3.77;;
70535;SDS011;58089;48.752;11.338;2022-07-10T00:39:55;6.50;;;3.60;;
70535;SDS011;58089;48.752;11.338;2022-07-10T00:42:20;6.10;;;3.73;;
70535;SDS011;58089;48.752;11.338;2022-07-10T00:44:46;6.93;;;3.83;;
70535;SDS011;58089;48.752;11.338;2022-07-10T00:47:11;6.17;;;3.50;;
70535;SDS011;58089;48.752;11.338;2022-07-10T00:49:37;6.55;;;4.13;;
70535;SDS011;58089;48.752;11.338;2022-07-10T00:52:03;6.33;;;3.60;;
70535;SDS011;58089;48.752;11.338;2022-07-10T00:54:29;7.38;;;3.42;;
70535;SDS011;58089;48.752;11.338;2022-07-10T00:56:55;8.23;;;3.63;;
70535;SDS011;58089;48.752;11.338;2022-07-10T00:59:21;5.67;;;2.93;;
70535;SDS011;58089;48.752;11.338;2022-07-10T01:01:46;6.37;;;3.77;;
70535;SDS011;58089;48.752;11.338;2022-07-10T01:04:12;6.17;;;3.87;;
70535;SDS011;58089;48.752;11.338;2022-07-10T01:06:37;7.90;;;3.90;;
70535;SDS011;58089;48.752;11.338;2022-07-10T01:09:02;6.13;;;4.30;;
70535;SDS011;58089;48.752;11.338;2022-07-10T01:11:28;7.27;;;3.73;;
70535;SDS011;58089;48.752;11.338;2022-07-10T01:13:53;6.80;;;4.50;;
70535;SDS011;58089;48.752;11.338;2022-07-10T01:16:18;6.60;;;3.72;;
70535;SDS011;58089;48.752;11.338;2022-07-10T01:18:43;7.40;;;4.83;;
70535;SDS011;58089;48.752;11.338;2022-07-10T01:23:53;6.68;;;4.20;;
70535;SDS011;58089;48.752;11.338;2022-07-10T01:26:19;5.90;;;3.47;;
70535;SDS011;58089;48.752;11.338;2022-07-10T01:28:46;6.15;;;3.58;;
70535;SDS011;58089;48.752;11.338;2022-07-10T01:31:12;6.90;;;3.50;;
70535;SDS011;58089;48.752;11.338;2022-07-10T01:33:37;7.43;;;3.57;;
70535;SDS011;58089;48.752;11.338;2022-07-10T01:36:02;6.37;;;3.83;;
70535;SDS011;58089;48.752;11.338;2022-07-10T01:38:27;5.97;;;3.50;;
70535;SDS011;58089;48.752;11.338;2022-07-10T01:40:53;6.18;;;3.72;;
70535;SDS011;58089;48.752;11.338;2022-07-10T01:43:19;8.23;;;4.30;;
70535;SDS011;58089;48.752;11.338;2022-07-10T01:45:45;6.40;;;3.80;;
70535;SDS011;58089;48.752;11.338;2022-07-10T01:48:10;6.47;;;3.93;;
70535;SDS011;58089;48.752;11.338;2022-07-10T01:50:35;7.57;;;4.03;;
70535;SDS011;58089;48.752;11.338;2022-07-10T01:53:00;5.83;;;3.67;;
70535;SDS011;58089;48.752;11.338;2022-07-10T01:55:25;6.83;;;3.83;;
70535;SDS011;58089;48.752;11.338;2022-07-10T01:57:50;10.90;;;6.90;;
70535;SDS011;58089;48.752;11.338;2022-07-10T02:00:16;10.90;;;7.80;;
70535;SDS011;58089;48.752;11.338;2022-07-10T02:02:41;11.15;;;6.95;;
70535;SDS011;58089;48.752;11.338;2022-07-10T02:05:26;7.90;;;5.20;;
70535;SDS011;58089;48.752;11.338;2022-07-10T02:07:51;6.80;;;4.53;;
70535;SDS011;58089;48.752;11.338;2022-07-10T02:10:16;6.00;;;3.67;;
70535;SDS011;58089;48.752;11.338;2022-07-10T02:12:42;6.43;;;4.10;;
70535;SDS011;58089;48.752;11.338;2022-07-10T02:15:07;7.00;;;4.70;;
70535;SDS011;58089;48.752;11.338;2022-07-10T02:17:32;8.67;;;6.30;;
70535;SDS011;58089;48.752;11.338;2022-07-10T02:19:57;10.63;;;7.63;;
70535;SDS011;58089;48.752;11.338;2022-07-10T02:22:23;11.70;;;8.63;;
70535;SDS011;58089;48.752;11.338;2022-07-10T02:24:48;10.10;;;5.80;;
70535;SDS011;58089;48.752;11.338;2022-07-10T02:27:13;7.83;;;4.97;;
70535;SDS011;58089;48.752;11.338;2022-07-10T02:29:38;6.37;;;3.70;;
70535;SDS011;58089;48.752;11.338;2022-07-10T02:32:03;6.60;;;3.33;;
70535;SDS011;58089;48.752;11.338;2022-07-10T02:34:29;6.63;;;3.47;;
70535;SDS011;58089;48.752;11.338;2022-07-10T02:36:54;6.23;;;3.43;;
70535;SDS011;58089;48.752;11.338;2022-07-10T02:39:19;6.57;;;3.23;;
70535;SDS011;58089;48.752;11.338;2022-07-10T02:41:44;6.97;;;3.33;;
70535;SDS011;58089;48.752;11.338;2022-07-10T02:44:10;6.70;;;3.30;;
70535;SDS011;58089;48.752;11.338;2022-07-10T02:46:36;5.05;;;2.72;;
70535;SDS011;58089;48.752;11.338;2022-07-10T02:49:01;5.80;;;3.20;;
70535;SDS011;58089;48.752;11.338;2022-07-10T02:51:26;6.00;;;3.20;;
70535;SDS011;58089;48.752;11.338;2022-07-10T02:53:52;6.87;;;3.67;;
70535;SDS011;58089;48.752;11.338;2022-07-10T02:56:17;6.07;;;3.63;;
70535;SDS011;58089;48.752;11.338;2022-07-10T02:58:42;6.07;;;3.60;;
70535;SDS011;58089;48.752;11.338;2022-07-10T03:01:07;6.03;;;3.40;;
70535;SDS011;58089;48.752;11.338;2022-07-10T03:03:33;6.35;;;3.63;;
70535;SDS011;58089;48.752;11.338;2022-07-10T03:05:58;6.57;;;3.13;;
70535;SDS011;58089;48.752;11.338;2022-07-10T03:08:24;6.00;;;3.50;;
70535;SDS011;58089;48.752;11.338;2022-07-10T03:10:49;5.53;;;3.40;;
70535;SDS011;58089;48.752;11.338;2022-07-10T03:13:14;6.60;;;4.20;;
70535;SDS011;58089;48.752;11.338;2022-07-10T03:15:39;7.03;;;3.70;;
70535;SDS011;58089;48.752;11.338;2022-07-10T03:18:04;7.63;;;4.33;;
70535;SDS011;58089;48.752;11.338;2022-07-10T03:20:30;7.63;;;3.83;;
70535;SDS011;58089;48.752;11.338;2022-07-10T03:22:55;6.93;;;3.80;;
70535;SDS011;58089;48.752;11.338;2022-07-10T03:25:20;7.10;;;3.43;;
70535;SDS011;58089;48.752;11.338;2022-07-10T03:27:45;6.10;;;3.10;;
70535;SDS011;58089;48.752;11.338;2022-07-10T03:30:11;6.50;;;4.00;;
70535;SDS011;58089;48.752;11.338;2022-07-10T03:32:36;5.73;;;3.43;;
70535;SDS011;58089;48.752;11.338;2022-07-10T03:35:01;5.47;;;3.33;;
70535;SDS011;58089;48.752;11.338;2022-07-10T03:37:27;5.90;;;3.50;;
70535;SDS011;58089;48.752;11.338;2022-07-10T03:39:52;6.70;;;4.07;;
70535;SDS011;58089;48.752;11.338;2022-07-10T03:42:17;10.00;;;3.80;;
70535;SDS011;58089;48.752;11.338;2022-07-10T03:44:43;6.53;;;4.13;;
70535;SDS011;58089;48.752;11.338;2022-07-10T03:47:08;7.97;;;4.17;;
70535;SDS011;58089;48.752;11.338;2022-07-10T03:49:33;6.03;;;3.50;;
70535;SDS011;58089;48.752;11.338;2022-07-10T03:51:59;6.50;;;4.03;;
70535;SDS011;58089;48.752;11.338;2022-07-10T03:54:25;6.40;;;4.00;;
70535;SDS011;58089;48.752;11.338;2022-07-10T03:56:50;6.03;;;3.57;;
70535;SDS011;58089;48.752;11.338;2022-07-10T03:59:34;6.30;;;3.97;;
70535;SDS011;58089;48.752;11.338;2022-07-10T04:01:59;7.27;;;4.27;;
70535;SDS011;58089;48.752;11.338;2022-07-10T04:04:24;7.03;;;3.90;;
70535;SDS011;58089;48.752;11.338;2022-07-10T04:06:49;7.47;;;4.30;;
70535;SDS011;58089;48.752;11.338;2022-07-10T04:09:14;6.73;;;4.10;;
70535;SDS011;58089;48.752;11.338;2022-07-10T04:11:40;7.10;;;4.67;;
70535;SDS011;58089;48.752;11.338;2022-07-10T04:14:05;7.13;;;4.13;;
70535;SDS011;58089;48.752;11.338;2022-07-10T04:16:30;6.37;;;4.10;;
70535;SDS011;58089;48.752;11.338;2022-07-10T04:18:55;7.93;;;4.60;;
70535;SDS011;58089;48.752;11.338;2022-07-10T04:21:20;11.47;;;4.30;;
70535;SDS011;58089;48.752;11.338;2022-07-10T04:23:45;7.47;;;3.80;;
70535;SDS011;58089;48.752;11.338;2022-07-10T04:26:11;7.23;;;4.07;;
70535;SDS011;58089;48.752;11.338;2022-07-10T04:28:36;8.27;;;4.40;;
70535;SDS011;58089;48.752;11.338;2022-07-10T04:31:01;6.60;;;4.43;;
70535;SDS011;58089;48.752;11.338;2022-07-10T04:33:26;8.05;;;4.40;;
70535;SDS011;58089;48.752;11.338;2022-07-10T04:35:51;8.27;;;3.83;;
70535;SDS011;58089;48.752;11.338;2022-07-10T04:38:17;7.27;;;4.00;;
70535;SDS011;58089;48.752;11.338;2022-07-10T04:40:42;7.70;;;3.83;;
70535;SDS011;58089;48.752;11.338;2022-07-10T04:43:07;7.00;;;4.20;;
70535;SDS011;58089;48.752;11.338;2022-07-10T04:45:32;8.40;;;4.33;;
70535;SDS011;58089;48.752;11.338;2022-07-10T04:47:57;7.00;;;4.20;;
70535;SDS011;58089;48.752;11.338;2022-07-10T04:50:22;6.27;;;3.83;;
70535;SDS011;58089;48.752;11.338;2022-07-10T04:52:48;9.67;;;4.80;;
70535;SDS011;58089;48.752;11.338;2022-07-10T04:55:13;7.83;;;3.97;;
70535;SDS011;58089;48.752;11.338;2022-07-10T04:57:38;6.80;;;3.87;;
70535;SDS011;58089;48.752;11.338;2022-07-10T05:00:04;7.80;;;4.00;;
70535;SDS011;58089;48.752;11.338;2022-07-10T05:02:29;7.43;;;4.00;;
70535;SDS011;58089;48.752;11.338;2022-07-10T05:04:54;7.57;;;4.13;;
70535;SDS011;58089;48.752;11.338;2022-07-10T05:07:19;6.63;;;3.47;;
70535;SDS011;58089;48.752;11.338;2022-07-10T05:09:45;9.17;;;3.70;;
70535;SDS011;58089;48.752;11.338;2022-07-10T05:12:10;8.20;;;4.13;;
70535;SDS011;58089;48.752;11.338;2022-07-10T05:14:35;9.03;;;4.20;;
70535;SDS011;58089;48.752;11.338;2022-07-10T05:17:00;5.83;;;3.17;;
70535;SDS011;58089;48.752;11.338;2022-07-10T05:19:25;6.83;;;3.27;;
70535;SDS011;58089;48.752;11.338;2022-07-10T05:21:50;6.67;;;3.07;;
70535;SDS011;58089;48.752;11.338;2022-07-10T05:24:16;11.90;;;3.23;;
70535;SDS011;58089;48.752;11.338;2022-07-10T05:26:41;6.50;;;2.87;;
70535;SDS011;58089;48.752;11.338;2022-07-10T05:29:06;8.03;;;2.97;;
70535;SDS011;58089;48.752;11.338;2022-07-10T05:31:31;6.20;;;2.97;;
70535;SDS011;58089;48.752;11.338;2022-07-10T05:33:56;5.90;;;2.27;;
70535;SDS011;58089;48.752;11.338;2022-07-10T05:36:22;6.73;;;2.60;;
70535;SDS011;58089;48.752;11.338;2022-07-10T05:38:47;5.17;;;2.30;;
70535;SDS011;58089;48.752;11.338;2022-07-10T05:41:12;5.83;;;2.50;;
70535;SDS011;58089;48.752;11.338;2022-07-10T05:43:37;7.20;;;2.67;;
70535;SDS011;58089;48.752;11.338;2022-07-10T05:46:02;6.53;;;2.27;;
70535;SDS011;58089;48.752;11.338;2022-07-10T05:48:28;6.70;;;2.20;;
70535;SDS011;58089;48.752;11.338;2022-07-10T05:50:53;8.15;;;2.13;;
70535;SDS011;58089;48.752;11.338;2022-07-10T05:53:18;5.87;;;2.13;;
70535;SDS011;58089;48.752;11.338;2022-07-10T05:55:45;6.13;;;2.00;;
70535;SDS011;58089;48.752;11.338;2022-07-10T05:58:10;5.95;;;1.83;;
70535;SDS011;58089;48.752;11.338;2022-07-10T06:00:37;5.65;;;2.03;;
70535;SDS011;58089;48.752;11.338;2022-07-10T06:03:02;4.60;;;1.70;;
70535;SDS011;58089;48.752;11.338;2022-07-10T06:05:27;5.70;;;1.80;;
70535;SDS011;58089;48.752;11.338;2022-07-10T06:07:52;5.00;;;1.97;;
70535;SDS011;58089;48.752;11.338;2022-07-10T06:10:17;4.93;;;1.80;;
70535;SDS011;58089;48.752;11.338;2022-07-10T06:12:43;6.20;;;1.77;;
70535;SDS011;58089;48.752;11.338;2022-07-10T06:15:08;4.77;;;1.60;;
70535;SDS011;58089;48.752;11.338;2022-07-10T06:17:33;5.73;;;1.63;;
70535;SDS011;58089;48.752;11.338;2022-07-10T06:19:59;6.23;;;1.40;;
70535;SDS011;58089;48.752;11.338;2022-07-10T06:22:24;6.30;;;1.67;;
70535;SDS011;58089;48.752;11.338;2022-07-10T06:24:55;6.30;;;1.52;;
70535;SDS011;58089;48.752;11.338;2022-07-10T06:27:20;6.40;;;2.00;;
70535;SDS011;58089;48.752;11.338;2022-07-10T06:29:46;3.90;;;1.20;;
70535;SDS011;58089;48.752;11.338;2022-07-10T06:32:11;6.73;;;1.30;;
70535;SDS011;58089;48.752;11.338;2022-07-10T06:34:36;5.07;;;1.30;;
70535;SDS011;58089;48.752;11.338;2022-07-10T06:37:01;5.00;;;1.00;;
70535;SDS011;58089;48.752;11.338;2022-07-10T06:39:28;5.47;;;1.40;;
70535;SDS011;58089;48.752;11.338;2022-07-10T06:41:56;5.55;;;1.50;;
70535;SDS011;58089;48.752;11.338;2022-07-10T06:44:21;5.87;;;1.60;;
70535;SDS011;58089;48.752;11.338;2022-07-10T06:46:47;4.17;;;1.07;;
70535;SDS011;58089;48.752;11.338;2022-07-10T06:49:32;5.65;;;1.17;;
70535;SDS011;58089;48.752;11.338;2022-07-10T06:51:57;6.90;;;1.20;;
70535;SDS011;58089;48.752;11.338;2022-07-10T06:54:22;5.70;;;1.17;;
70535;SDS011;58089;48.752;11.338;2022-07-10T06:56:47;6.60;;;1.00;;
70535;SDS011;58089;48.752;11.338;2022-07-10T06:59:13;5.90;;;1.17;;
70535;SDS011;58089;48.752;11.338;2022-07-10T07:01:38;5.03;;;1.20;;
70535;SDS011;58089;48.752;11.338;2022-07-10T07:04:03;6.82;;;1.30;;
70535;SDS011;58089;48.752;11.338;2022-07-10T07:06:29;6.70;;;1.03;;
70535;SDS011;58089;48.752;11.338;2022-07-10T07:08:54;5.63;;;1.10;;
70535;SDS011;58089;48.752;11.338;2022-07-10T07:11:19;5.10;;;0.97;;
70535;SDS011;58089;48.752;11.338;2022-07-10T07:13:44;4.47;;;0.80;;
70535;SDS011;58089;48.752;11.338;2022-07-10T07:16:10;5.57;;;1.20;;
70535;SDS011;58089;48.752;11.338;2022-07-10T07:18:36;5.38;;;0.95;;
70535;SDS011;58089;48.752;11.338;2022-07-10T07:21:12;6.30;;;1.08;;
70535;SDS011;58089;48.752;11.338;2022-07-10T07:23:56;5.20;;;0.70;;
70535;SDS011;58089;48.752;11.338;2022-07-10T07:26:21;5.43;;;0.90;;
70535;SDS011;58089;48.752;11.338;2022-07-10T07:28:46;4.37;;;0.97;;
70535;SDS011;58089;48.752;11.338;2022-07-10T07:31:11;5.33;;;1.00;;
70535;SDS011;58089;48.752;11.338;2022-07-10T07:33:36;5.35;;;1.10;;
70535;SDS011;58089;48.752;11.338;2022-07-10T07:36:02;4.20;;;0.80;;
70535;SDS011;58089;48.752;11.338;2022-07-10T07:38:27;5.03;;;0.97;;
70535;SDS011;58089;48.752;11.338;2022-07-10T07:40:53;3.63;;;0.80;;
70535;SDS011;58089;48.752;11.338;2022-07-10T07:43:18;6.53;;;1.37;;
70535;SDS011;58089;48.752;11.338;2022-07-10T07:45:43;5.43;;;1.17;;
70535;SDS011;58089;48.752;11.338;2022-07-10T07:48:09;5.03;;;0.90;;
70535;SDS011;58089;48.752;11.338;2022-07-10T07:50:34;5.27;;;1.10;;
70535;SDS011;58089;48.752;11.338;2022-07-10T07:53:00;5.00;;;0.88;;
70535;SDS011;58089;48.752;11.338;2022-07-10T07:55:26;5.50;;;1.10;;
70535;SDS011;58089;48.752;11.338;2022-07-10T07:57:52;3.80;;;1.00;;
70535;SDS011;58089;48.752;11.338;2022-07-10T08:00:18;5.57;;;1.10;;
70535;SDS011;58089;48.752;11.338;2022-07-10T08:02:43;4.97;;;1.00;;
70535;SDS011;58089;48.752;11.338;2022-07-10T08:05:09;3.87;;;0.80;;
70535;SDS011;58089;48.752;11.338;2022-07-10T08:09:59;4.23;;;0.90;;
70535;SDS011;58089;48.752;11.338;2022-07-10T08:12:24;5.00;;;1.47;;
70535;SDS011;58089;48.752;11.338;2022-07-10T08:14:50;5.13;;;0.97;;
70535;SDS011;58089;48.752;11.338;2022-07-10T08:17:15;5.50;;;1.00;;
70535;SDS011;58089;48.752;11.338;2022-07-10T08:19:40;6.57;;;1.30;;
70535;SDS011;58089;48.752;11.338;2022-07-10T08:22:05;4.23;;;1.00;;
70535;SDS011;58089;48.752;11.338;2022-07-10T08:24:30;4.50;;;1.03;;
70535;SDS011;58089;48.752;11.338;2022-07-10T08:26:56;5.37;;;0.83;;
70535;SDS011;58089;48.752;11.338;2022-07-10T08:29:21;4.23;;;1.00;;
70535;SDS011;58089;48.752;11.338;2022-07-10T08:31:46;7.53;;;2.90;;
70535;SDS011;58089;48.752;11.338;2022-07-10T08:34:11;5.27;;;1.20;;
70535;SDS011;58089;48.752;11.338;2022-07-10T08:36:37;3.97;;;1.20;;
70535;SDS011;58089;48.752;11.338;2022-07-10T08:39:02;4.03;;;1.33;;
70535;SDS011;58089;48.752;11.338;2022-07-10T08:41:27;7.53;;;1.10;;
70535;SDS011;58089;48.752;11.338;2022-07-10T08:43:53;5.83;;;1.30;;
70535;SDS011;58089;48.752;11.338;2022-07-10T08:46:18;4.95;;;1.05;;
70535;SDS011;58089;48.752;11.338;2022-07-10T08:48:47;6.30;;;1.07;;
70535;SDS011;58089;48.752;11.338;2022-07-10T08:51:12;5.03;;;0.90;;
70535;SDS011;58089;48.752;11.338;2022-07-10T08:53:40;4.05;;;0.90;;
70535;SDS011;58089;48.752;11.338;2022-07-10T08:56:06;6.77;;;1.27;;
70535;SDS011;58089;48.752;11.338;2022-07-10T08:58:31;5.33;;;1.00;;
70535;SDS011;58089;48.752;11.338;2022-07-10T09:00:57;5.53;;;1.00;;
70535;SDS011;58089;48.752;11.338;2022-07-10T09:03:22;5.30;;;0.80;;
70535;SDS011;58089;48.752;11.338;2022-07-10T09:05:48;4.40;;;0.77;;
70535;SDS011;58089;48.752;11.338;2022-07-10T09:08:26;5.90;;;0.83;;
70535;SDS011;58089;48.752;11.338;2022-07-10T09:13:52;5.25;;;0.90;;
70535;SDS011;58089;48.752;11.338;2022-07-10T09:16:21;5.43;;;0.80;;
70535;SDS011;58089;48.752;11.338;2022-07-10T09:18:46;3.72;;;0.52;;
70535;SDS011;58089;48.752;11.338;2022-07-10T09:21:12;5.97;;;0.90;;
70535;SDS011;58089;48.752;11.338;2022-07-10T09:23:37;3.80;;;0.60;;
70535;SDS011;58089;48.752;11.338;2022-07-10T09:26:02;8.00;;;0.80;;
70535;SDS011;58089;48.752;11.338;2022-07-10T09:28:29;6.05;;;1.00;;
70535;SDS011;58089;48.752;11.338;2022-07-10T09:30:54;3.90;;;0.70;;
70535;SDS011;58089;48.752;11.338;2022-07-10T09:33:21;3.33;;;0.68;;
70535;SDS011;58089;48.752;11.338;2022-07-10T09:36:10;5.88;;;0.90;;
70535;SDS011;58089;48.752;11.338;2022-07-10T09:41:20;4.90;;;0.73;;
70535;SDS011;58089;48.752;11.338;2022-07-10T09:43:47;4.22;;;0.60;;
70535;SDS011;58089;48.752;11.338;2022-07-10T09:46:13;4.93;;;0.70;;
70535;SDS011;58089;48.752;11.338;2022-07-10T09:48:38;4.07;;;0.80;;
70535;SDS011;58089;48.752;11.338;2022-07-10T09:51:04;7.63;;;1.03;;
70535;SDS011;58089;48.752;11.338;2022-07-10T09:53:31;4.00;;;0.70;;
70535;SDS011;58089;48.752;11.338;2022-07-10T09:55:57;4.05;;;0.90;;
70535;SDS011;58089;48.752;11.338;2022-07-10T09:58:24;5.25;;;1.50;;
70535;SDS011;58089;48.752;11.338;2022-07-10T10:00:50;3.95;;;0.80;;
70535;SDS011;58089;48.752;11.338;2022-07-10T10:03:16;5.27;;;0.73;;
70535;SDS011;58089;48.752;11.338;2022-07-10T10:05:44;3.63;;;0.68;;
70535;SDS011;58089;48.752;11.338;2022-07-10T10:08:17;5.07;;;0.80;;
70535;SDS011;58089;48.752;11.338;2022-07-10T10:10:44;4.22;;;1.00;;
70535;SDS011;58089;48.752;11.338;2022-07-10T10:13:10;5.68;;;0.80;;
70535;SDS011;58089;48.752;11.338;2022-07-10T10:15:36;4.97;;;0.70;;
70535;SDS011;58089;48.752;11.338;2022-07-10T10:18:01;4.00;;;0.63;;
70535;SDS011;58089;48.752;11.338;2022-07-10T10:20:27;4.97;;;1.20;;
70535;SDS011;58089;48.752;11.338;2022-07-10T10:25:59;4.47;;;0.73;;
70535;SDS011;58089;48.752;11.338;2022-07-10T10:28:25;4.20;;;0.63;;
70535;SDS011;58089;48.752;11.338;2022-07-10T10:30:54;4.67;;;0.77;;
70535;SDS011;58089;48.752;11.338;2022-07-10T10:36:02;3.60;;;0.70;;
70535;SDS011;58089;48.752;11.338;2022-07-10T10:49:15;4.75;;;0.93;;
70535;SDS011;58089;48.752;11.338;2022-07-10T10:52:01;6.85;;;0.70;;
70535;SDS011;58089;48.752;11.338;2022-07-10T10:54:27;5.38;;;0.80;;
70535;SDS011;58089;48.752;11.338;2022-07-10T10:59:50;5.18;;;0.70;;
70535;SDS011;58089;48.752;11.338;2022-07-10T11:02:22;3.83;;;0.57;;
70535;SDS011;58089;48.752;11.338;2022-07-10T11:04:49;3.78;;;0.82;;
70535;SDS011;58089;48.752;11.338;2022-07-10T11:07:19;4.70;;;0.80;;
70535;SDS011;58089;48.752;11.338;2022-07-10T11:15:23;4.45;;;0.60;;
70535;SDS011;58089;48.752;11.338;2022-07-10T11:17:49;4.17;;;0.70;;
70535;SDS011;58089;48.752;11.338;2022-07-10T11:20:15;3.38;;;0.55;;
70535;SDS011;58089;48.752;11.338;2022-07-10T11:22:47;3.80;;;0.83;;
70535;SDS011;58089;48.752;11.338;2022-07-10T11:33:15;3.73;;;0.60;;
70535;SDS011;58089;48.752;11.338;2022-07-10T11:35:44;4.45;;;0.93;;
70535;SDS011;58089;48.752;11.338;2022-07-10T11:38:09;4.33;;;1.13;;
70535;SDS011;58089;48.752;11.338;2022-07-10T11:40:37;5.82;;;1.00;;
70535;SDS011;58089;48.752;11.338;2022-07-10T11:43:02;3.78;;;0.85;;
70535;SDS011;58089;48.752;11.338;2022-07-10T11:45:31;4.55;;;1.10;;
70535;SDS011;58089;48.752;11.338;2022-07-10T11:47:57;4.38;;;1.25;;
70535;SDS011;58089;48.752;11.338;2022-07-10T11:50:23;5.03;;;0.63;;
70535;SDS011;58089;48.752;11.338;2022-07-10T11:52:49;4.55;;;0.80;;
70535;SDS011;58089;48.752;11.338;2022-07-10T11:57:41;4.37;;;0.90;;
70535;SDS011;58089;48.752;11.338;2022-07-10T12:00:06;4.40;;;0.63;;
70535;SDS011;58089;48.752;11.338;2022-07-10T12:02:32;4.72;;;0.98;;
70535;SDS011;58089;48.752;11.338;2022-07-10T12:04:57;4.57;;;0.90;;
70535;SDS011;58089;48.752;11.338;2022-07-10T12:07:23;4.10;;;0.77;;
70535;SDS011;58089;48.752;11.338;2022-07-10T12:09:54;4.65;;;0.80;;
70535;SDS011;58089;48.752;11.338;2022-07-10T12:12:22;4.50;;;0.70;;
70535;SDS011;58089;48.752;11.338;2022-07-10T12:14:47;3.63;;;0.65;;
70535;SDS011;58089;48.752;11.338;2022-07-10T12:17:12;4.27;;;0.80;;
70535;SDS011;58089;48.752;11.338;2022-07-10T12:19:38;5.33;;;0.83;;
70535;SDS011;58089;48.752;11.338;2022-07-10T12:22:04;5.17;;;0.80;;
70535;SDS011;58089;48.752;11.338;2022-07-10T12:24:29;4.38;;;0.73;;
70535;SDS011;58089;48.752;11.338;2022-07-10T12:26:55;3.87;;;0.77;;
70535;SDS011;58089;48.752;11.338;2022-07-10T12:29:21;5.07;;;0.80;;
70535;SDS011;58089;48.752;11.338;2022-07-10T12:31:47;3.77;;;0.70;;
70535;SDS011;58089;48.752;11.338;2022-07-10T12:34:13;4.65;;;0.80;;
70535;SDS011;58089;48.752;11.338;2022-07-10T12:36:45;3.83;;;0.68;;
70535;SDS011;58089;48.752;11.338;2022-07-10T12:39:11;3.40;;;0.50;;
70535;SDS011;58089;48.752;11.338;2022-07-10T12:47:05;3.67;;;0.65;;
70535;SDS011;58089;48.752;11.338;2022-07-10T12:52:21;3.73;;;0.67;;
70535;SDS011;58089;48.752;11.338;2022-07-10T12:54:47;4.18;;;0.70;;
70535;SDS011;58089;48.752;11.338;2022-07-10T12:57:12;3.63;;;0.70;;
70535;SDS011;58089;48.752;11.338;2022-07-10T12:59:37;3.07;;;0.57;;
70535;SDS011;58089;48.752;11.338;2022-07-10T13:02:19;3.70;;;0.60;;
70535;SDS011;58089;48.752;11.338;2022-07-10T13:04:57;3.65;;;0.70;;
70535;SDS011;58089;48.752;11.338;2022-07-10T13:07:35;6.65;;;0.75;;
70535;SDS011;58089;48.752;11.338;2022-07-10T13:10:01;4.18;;;0.60;;
70535;SDS011;58089;48.752;11.338;2022-07-10T13:12:27;5.53;;;0.70;;
70535;SDS011;58089;48.752;11.338;2022-07-10T13:14:52;4.05;;;0.60;;
70535;SDS011;58089;48.752;11.338;2022-07-10T13:17:17;3.37;;;0.60;;
70535;SDS011;58089;48.752;11.338;2022-07-10T13:19:43;7.23;;;0.83;;
70535;SDS011;58089;48.752;11.338;2022-07-10T13:22:08;4.53;;;0.90;;
70535;SDS011;58089;48.752;11.338;2022-07-10T13:24:33;3.20;;;0.60;;
70535;SDS011;58089;48.752;11.338;2022-07-10T13:26:58;5.07;;;0.70;;
70535;SDS011;58089;48.752;11.338;2022-07-10T13:29:23;4.70;;;0.50;;
70535;SDS011;58089;48.752;11.338;2022-07-10T13:31:49;5.23;;;0.60;;
70535;SDS011;58089;48.752;11.338;2022-07-10T13:34:14;3.80;;;0.70;;
70535;SDS011;58089;48.752;11.338;2022-07-10T13:36:39;3.40;;;0.53;;
70535;SDS011;58089;48.752;11.338;2022-07-10T13:39:04;3.43;;;0.70;;
70535;SDS011;58089;48.752;11.338;2022-07-10T13:41:29;4.00;;;0.90;;
70535;SDS011;58089;48.752;11.338;2022-07-10T13:43:55;4.40;;;0.60;;
70535;SDS011;58089;48.752;11.338;2022-07-10T13:46:20;3.73;;;0.57;;
70535;SDS011;58089;48.752;11.338;2022-07-10T13:48:45;5.20;;;0.60;;
70535;SDS011;58089;48.752;11.338;2022-07-10T13:51:11;3.53;;;0.70;;
70535;SDS011;58089;48.752;11.338;2022-07-10T13:53:36;3.17;;;0.40;;
70535;SDS011;58089;48.752;11.338;2022-07-10T13:56:03;4.07;;;0.70;;
70535;SDS011;58089;48.752;11.338;2022-07-10T13:58:28;3.70;;;0.52;;
70535;SDS011;58089;48.752;11.338;2022-07-10T14:00:54;4.97;;;0.63;;
70535;SDS011;58089;48.752;11.338;2022-07-10T14:03:19;4.80;;;0.50;;
70535;SDS011;58089;48.752;11.338;2022-07-10T14:05:44;3.70;;;0.40;;
70535;SDS011;58089;48.752;11.338;2022-07-10T14:08:09;3.53;;;0.60;;
70535;SDS011;58089;48.752;11.338;2022-07-10T14:10:35;3.60;;;0.60;;
70535;SDS011;58089;48.752;11.338;2022-07-10T14:13:00;3.53;;;0.60;;
70535;SDS011;58089;48.752;11.338;2022-07-10T14:15:25;3.53;;;0.70;;
70535;SDS011;58089;48.752;11.338;2022-07-10T14:17:50;4.73;;;0.60;;
70535;SDS011;58089;48.752;11.338;2022-07-10T14:20:16;3.60;;;0.60;;
70535;SDS011;58089;48.752;11.338;2022-07-10T14:22:42;3.55;;;0.60;;
70535;SDS011;58089;48.752;11.338;2022-07-10T14:25:10;4.37;;;0.53;;
70535;SDS011;58089;48.752;11.338;2022-07-10T14:27:35;3.53;;;0.60;;
70535;SDS011;58089;48.752;11.338;2022-07-10T14:30:00;4.53;;;0.67;;
70535;SDS011;58089;48.752;11.338;2022-07-10T14:32:26;3.03;;;0.57;;
70535;SDS011;58089;48.752;11.338;2022-07-10T14:34:51;3.47;;;0.50;;
70535;SDS011;58089;48.752;11.338;2022-07-10T14:37:16;3.50;;;0.50;;
70535;SDS011;58089;48.752;11.338;2022-07-10T14:39:42;5.30;;;0.70;;
70535;SDS011;58089;48.752;11.338;2022-07-10T14:42:07;4.70;;;0.50;;
70535;SDS011;58089;48.752;11.338;2022-07-10T14:44:33;6.03;;;0.90;;
70535;SDS011;58089;48.752;11.338;2022-07-10T14:46:58;3.45;;;0.50;;
70535;SDS011;58089;48.752;11.338;2022-07-10T14:49:23;3.43;;;0.50;;
70535;SDS011;58089;48.752;11.338;2022-07-10T14:51:48;4.80;;;0.70;;
70535;SDS011;58089;48.752;11.338;2022-07-10T14:54:13;3.83;;;0.47;;
70535;SDS011;58089;48.752;11.338;2022-07-10T14:56:39;5.50;;;0.80;;
70535;SDS011;58089;48.752;11.338;2022-07-10T14:59:04;3.60;;;0.50;;
70535;SDS011;58089;48.752;11.338;2022-07-10T15:01:29;3.47;;;0.67;;
70535;SDS011;58089;48.752;11.338;2022-07-10T15:03:54;3.13;;;0.60;;
70535;SDS011;58089;48.752;11.338;2022-07-10T15:06:22;3.30;;;0.50;;
70535;SDS011;58089;48.752;11.338;2022-07-10T15:08:47;4.67;;;0.80;;
70535;SDS011;58089;48.752;11.338;2022-07-10T15:11:16;4.38;;;0.70;;
70535;SDS011;58089;48.752;11.338;2022-07-10T15:13:41;3.23;;;0.37;;
70535;SDS011;58089;48.752;11.338;2022-07-10T15:16:06;3.33;;;0.50;;
70535;SDS011;58089;48.752;11.338;2022-07-10T15:18:32;4.22;;;0.50;;
70535;SDS011;58089;48.752;11.338;2022-07-10T15:20:57;4.23;;;0.57;;